sensor_id;sensor_type;location;lat;lon;timestamp;temperature;humidity
11944;DHT22;6031;50.220;10.122;2023-05-29T00:02:13;11.60;1.00
11944;DHT22;6031;50.220;10.122;2023-05-29T00:04:39;11.50;1.00
11944;DHT22;6031;50.220;10.122;2023-05-29T00:07:05;11.40;1.00
11944;DHT22;6031;50.220;10.122;2023-05-29T00:09:30;11.30;1.00
11944;DHT22;6031;50.220;10.122;2023-05-29T00:11:56;11.20;94.50
11944;DHT22;6031;50.220;10.122;2023-05-29T00:14:21;11.00;95.30
11944;DHT22;6031;50.220;10.122;2023-05-29T00:16:49;11.00;99.90
11944;DHT22;6031;50.220;10.122;2023-05-29T00:19:15;10.90;99.90
11944;DHT22;6031;50.220;10.122;2023-05-29T00:21:45;10.80;99.90
11944;DHT22;6031;50.220;10.122;2023-05-29T00:24:13;10.80;1.00
11944;DHT22;6031;50.220;10.122;2023-05-29T00:26:39;10.80;1.00
11944;DHT22;6031;50.220;10.122;2023-05-29T00:29:05;10.90;1.00
11944;DHT22;6031;50.220;10.122;2023-05-29T00:31:30;11.00;1.00
11944;DHT22;6031;50.220;10.122;2023-05-29T00:33:56;11.00;1.00
11944;DHT22;6031;50.220;10.122;2023-05-29T00:36:21;11.10;1.00
11944;DHT22;6031;50.220;10.122;2023-05-29T00:38:47;11.10;1.00
11944;DHT22;6031;50.220;10.122;2023-05-29T00:41:14;11.00;1.00
11944;DHT22;6031;50.220;10.122;2023-05-29T00:43:41;11.00;1.00
11944;DHT22;6031;50.220;10.122;2023-05-29T00:46:06;10.90;1.00
11944;DHT22;6031;50.220;10.122;2023-05-29T00:48:32;10.80;1.00
11944;DHT22;6031;50.220;10.122;2023-05-29T00:50:58;10.80;1.00
11944;DHT22;6031;50.220;10.122;2023-05-29T00:53:24;10.70;1.00
11944;DHT22;6031;50.220;10.122;2023-05-29T00:55:50;10.70;1.00
11944;DHT22;6031;50.220;10.122;2023-05-29T00:58:16;10.60;1.00
11944;DHT22;6031;50.220;10.122;2023-05-29T01:00:42;10.60;1.00
11944;DHT22;6031;50.220;10.122;2023-05-29T01:03:08;10.60;1.00
11944;DHT22;6031;50.220;10.122;2023-05-29T01:05:34;10.50;1.00
11944;DHT22;6031;50.220;10.122;2023-05-29T01:08:02;10.50;1.00
11944;DHT22;6031;50.220;10.122;2023-05-29T01:10:28;10.60;1.00
11944;DHT22;6031;50.220;10.122;2023-05-29T01:13:13;10.60;1.00
11944;DHT22;6031;50.220;10.122;2023-05-29T01:15:46;10.50;1.00
11944;DHT22;6031;50.220;10.122;2023-05-29T01:21:42;10.60;1.00
11944;DHT22;6031;50.220;10.122;2023-05-29T01:27:01;10.60;1.00
11944;DHT22;6031;50.220;10.122;2023-05-29T01:29:29;10.60;1.00
11944;DHT22;6031;50.220;10.122;2023-05-29T01:31:58;10.60;1.00
11944;DHT22;6031;50.220;10.122;2023-05-29T01:34:24;10.60;1.00
11944;DHT22;6031;50.220;10.122;2023-05-29T01:36:49;10.60;99.90
11944;DHT22;6031;50.220;10.122;2023-05-29T01:39:15;10.60;99.90
11944;DHT22;6031;50.220;10.122;2023-05-29T01:41:43;10.50;99.90
11944;DHT22;6031;50.220;10.122;2023-05-29T01:44:09;10.40;99.90
11944;DHT22;6031;50.220;10.122;2023-05-29T01:46:40;10.30;99.90
11944;DHT22;6031;50.220;10.122;2023-05-29T01:49:06;10.20;1.00
11944;DHT22;6031;50.220;10.122;2023-05-29T01:51:32;10.20;1.00
11944;DHT22;6031;50.220;10.122;2023-05-29T01:53:59;10.10;1.00
11944;DHT22;6031;50.220;10.122;2023-05-29T01:56:26;10.10;1.00
11944;DHT22;6031;50.220;10.122;2023-05-29T01:58:54;10.10;1.00
11944;DHT22;6031;50.220;10.122;2023-05-29T02:01:21;10.00;1.00
11944;DHT22;6031;50.220;10.122;2023-05-29T02:03:47;9.90;1.00
11944;DHT22;6031;50.220;10.122;2023-05-29T02:06:12;9.90;1.00
11944;DHT22;6031;50.220;10.122;2023-05-29T02:08:38;9.90;1.00
11944;DHT22;6031;50.220;10.122;2023-05-29T02:11:03;9.80;1.00
11944;DHT22;6031;50.220;10.122;2023-05-29T02:13:29;9.70;1.00
11944;DHT22;6031;50.220;10.122;2023-05-29T02:15:55;9.70;99.90
11944;DHT22;6031;50.220;10.122;2023-05-29T02:18:20;9.80;1.00
11944;DHT22;6031;50.220;10.122;2023-05-29T02:20:46;9.70;1.00
11944;DHT22;6031;50.220;10.122;2023-05-29T02:23:12;9.80;1.00
11944;DHT22;6031;50.220;10.122;2023-05-29T02:25:38;9.80;1.00
11944;DHT22;6031;50.220;10.122;2023-05-29T02:28:04;9.70;1.00
11944;DHT22;6031;50.220;10.122;2023-05-29T02:30:30;9.70;1.00
11944;DHT22;6031;50.220;10.122;2023-05-29T02:32:56;9.90;96.70
11944;DHT22;6031;50.220;10.122;2023-05-29T02:35:21;9.90;1.00
11944;DHT22;6031;50.220;10.122;2023-05-29T02:37:49;9.80;1.00
11944;DHT22;6031;50.220;10.122;2023-05-29T02:40:15;9.70;1.00
11944;DHT22;6031;50.220;10.122;2023-05-29T02:42:40;9.70;1.00
11944;DHT22;6031;50.220;10.122;2023-05-29T02:45:06;9.60;1.00
11944;DHT22;6031;50.220;10.122;2023-05-29T02:47:32;9.50;42.70
11944;DHT22;6031;50.220;10.122;2023-05-29T02:49:57;9.50;99.90
11944;DHT22;6031;50.220;10.122;2023-05-29T02:52:23;9.40;99.90
11944;DHT22;6031;50.220;10.122;2023-05-29T02:54:49;9.40;1.00
11944;DHT22;6031;50.220;10.122;2023-05-29T02:57:14;9.40;1.00
11944;DHT22;6031;50.220;10.122;2023-05-29T02:59:40;9.40;1.00
11944;DHT22;6031;50.220;10.122;2023-05-29T03:02:06;9.30;1.00
11944;DHT22;6031;50.220;10.122;2023-05-29T03:04:32;9.50;99.90
11944;DHT22;6031;50.220;10.122;2023-05-29T03:06:57;9.40;99.90
11944;DHT22;6031;50.220;10.122;2023-05-29T03:09:23;9.40;1.00
11944;DHT22;6031;50.220;10.122;2023-05-29T03:11:48;9.30;1.00
11944;DHT22;6031;50.220;10.122;2023-05-29T03:14:16;9.20;67.20
11944;DHT22;6031;50.220;10.122;2023-05-29T03:16:43;9.10;99.90
11944;DHT22;6031;50.220;10.122;2023-05-29T03:19:08;9.10;99.90
11944;DHT22;6031;50.220;10.122;2023-05-29T03:21:34;9.20;1.00
11944;DHT22;6031;50.220;10.122;2023-05-29T03:24:01;9.10;99.90
11944;DHT22;6031;50.220;10.122;2023-05-29T03:26:28;9.10;99.90
11944;DHT22;6031;50.220;10.122;2023-05-29T03:28:53;9.20;99.60
11944;DHT22;6031;50.220;10.122;2023-05-29T03:31:19;9.10;19.30
11944;DHT22;6031;50.220;10.122;2023-05-29T03:33:44;9.10;1.00
11944;DHT22;6031;50.220;10.122;2023-05-29T03:36:11;9.10;1.00
11944;DHT22;6031;50.220;10.122;2023-05-29T03:38:36;9.10;1.00
11944;DHT22;6031;50.220;10.122;2023-05-29T03:41:02;9.10;1.00
11944;DHT22;6031;50.220;10.122;2023-05-29T03:43:27;9.00;1.00
11944;DHT22;6031;50.220;10.122;2023-05-29T03:45:53;8.90;43.00
11944;DHT22;6031;50.220;10.122;2023-05-29T03:48:18;8.90;99.90
11944;DHT22;6031;50.220;10.122;2023-05-29T03:50:45;8.90;1.00
11944;DHT22;6031;50.220;10.122;2023-05-29T03:53:11;9.10;99.90
11944;DHT22;6031;50.220;10.122;2023-05-29T03:55:36;9.10;99.90
11944;DHT22;6031;50.220;10.122;2023-05-29T03:58:02;9.20;99.90
11944;DHT22;6031;50.220;10.122;2023-05-29T04:00:27;9.20;1.00
11944;DHT22;6031;50.220;10.122;2023-05-29T04:02:55;9.10;1.00
11944;DHT22;6031;50.220;10.122;2023-05-29T04:05:20;9.00;1.00
11944;DHT22;6031;50.220;10.122;2023-05-29T04:07:46;9.00;1.00
11944;DHT22;6031;50.220;10.122;2023-05-29T04:10:12;9.20;99.90
11944;DHT22;6031;50.220;10.122;2023-05-29T04:12:37;9.30;99.90
11944;DHT22;6031;50.220;10.122;2023-05-29T04:15:04;9.30;99.90
11944;DHT22;6031;50.220;10.122;2023-05-29T04:17:29;9.40;1.00
11944;DHT22;6031;50.220;10.122;2023-05-29T04:19:55;9.40;1.00
11944;DHT22;6031;50.220;10.122;2023-05-29T04:22:20;9.50;1.00
11944;DHT22;6031;50.220;10.122;2023-05-29T04:24:46;9.70;1.00
11944;DHT22;6031;50.220;10.122;2023-05-29T04:27:12;9.80;99.90
11944;DHT22;6031;50.220;10.122;2023-05-29T04:29:41;9.90;1.00
11944;DHT22;6031;50.220;10.122;2023-05-29T04:32:08;9.90;99.90
11944;DHT22;6031;50.220;10.122;2023-05-29T04:34:35;9.90;1.00
11944;DHT22;6031;50.220;10.122;2023-05-29T04:37:02;9.90;1.00
11944;DHT22;6031;50.220;10.122;2023-05-29T04:39:28;10.10;99.90
11944;DHT22;6031;50.220;10.122;2023-05-29T04:41:54;10.20;99.90
11944;DHT22;6031;50.220;10.122;2023-05-29T04:44:21;10.40;99.90
11944;DHT22;6031;50.220;10.122;2023-05-29T04:46:47;10.40;99.90
11944;DHT22;6031;50.220;10.122;2023-05-29T04:49:13;10.60;1.00
11944;DHT22;6031;50.220;10.122;2023-05-29T04:51:39;10.70;1.00
11944;DHT22;6031;50.220;10.122;2023-05-29T04:54:08;10.80;1.00
11944;DHT22;6031;50.220;10.122;2023-05-29T04:56:34;10.90;1.00
11944;DHT22;6031;50.220;10.122;2023-05-29T04:59:00;11.00;1.00
11944;DHT22;6031;50.220;10.122;2023-05-29T05:01:25;11.20;99.90
11944;DHT22;6031;50.220;10.122;2023-05-29T05:03:51;11.40;99.90
11944;DHT22;6031;50.220;10.122;2023-05-29T05:06:21;11.60;99.90
11944;DHT22;6031;50.220;10.122;2023-05-29T05:08:47;11.80;99.90
11944;DHT22;6031;50.220;10.122;2023-05-29T05:11:13;12.00;1.00
11944;DHT22;6031;50.220;10.122;2023-05-29T05:13:39;12.10;1.00
11944;DHT22;6031;50.220;10.122;2023-05-29T05:16:05;12.20;1.00
11944;DHT22;6031;50.220;10.122;2023-05-29T05:18:31;12.40;1.00
11944;DHT22;6031;50.220;10.122;2023-05-29T05:20:56;12.50;1.00
11944;DHT22;6031;50.220;10.122;2023-05-29T05:23:22;12.70;1.00
11944;DHT22;6031;50.220;10.122;2023-05-29T05:25:47;12.90;1.00
11944;DHT22;6031;50.220;10.122;2023-05-29T05:28:13;13.20;1.00
11944;DHT22;6031;50.220;10.122;2023-05-29T05:30:38;13.40;99.90
11944;DHT22;6031;50.220;10.122;2023-05-29T05:33:04;13.60;99.90
11944;DHT22;6031;50.220;10.122;2023-05-29T05:35:29;13.90;59.30
11944;DHT22;6031;50.220;10.122;2023-05-29T05:37:55;14.10;14.80
11944;DHT22;6031;50.220;10.122;2023-05-29T05:40:23;14.30;1.00
11944;DHT22;6031;50.220;10.122;2023-05-29T05:42:49;14.50;1.00
11944;DHT22;6031;50.220;10.122;2023-05-29T05:45:15;14.60;1.00
11944;DHT22;6031;50.220;10.122;2023-05-29T05:47:40;14.90;1.00
11944;DHT22;6031;50.220;10.122;2023-05-29T05:50:06;15.10;1.00
11944;DHT22;6031;50.220;10.122;2023-05-29T05:52:32;15.30;1.00
11944;DHT22;6031;50.220;10.122;2023-05-29T05:54:58;15.60;1.00
11944;DHT22;6031;50.220;10.122;2023-05-29T05:57:24;15.90;1.00
11944;DHT22;6031;50.220;10.122;2023-05-29T05:59:50;16.40;1.00
11944;DHT22;6031;50.220;10.122;2023-05-29T06:02:16;17.50;1.00
11944;DHT22;6031;50.220;10.122;2023-05-29T06:04:41;18.60;1.00
11944;DHT22;6031;50.220;10.122;2023-05-29T06:07:08;19.30;1.00
11944;DHT22;6031;50.220;10.122;2023-05-29T06:09:34;19.80;1.00
11944;DHT22;6031;50.220;10.122;2023-05-29T06:11:59;20.30;1.00
11944;DHT22;6031;50.220;10.122;2023-05-29T06:14:25;21.00;1.00
11944;DHT22;6031;50.220;10.122;2023-05-29T06:16:50;21.40;1.00
11944;DHT22;6031;50.220;10.122;2023-05-29T06:19:16;21.40;1.00
11944;DHT22;6031;50.220;10.122;2023-05-29T06:21:42;21.50;1.00
11944;DHT22;6031;50.220;10.122;2023-05-29T06:24:07;21.60;1.00
11944;DHT22;6031;50.220;10.122;2023-05-29T06:26:33;21.90;1.00
11944;DHT22;6031;50.220;10.122;2023-05-29T06:28:59;21.70;1.00
11944;DHT22;6031;50.220;10.122;2023-05-29T06:31:24;22.20;1.00
11944;DHT22;6031;50.220;10.122;2023-05-29T06:33:50;22.50;1.00
11944;DHT22;6031;50.220;10.122;2023-05-29T06:36:16;22.60;1.00
11944;DHT22;6031;50.220;10.122;2023-05-29T06:38:46;23.10;1.00
11944;DHT22;6031;50.220;10.122;2023-05-29T06:41:12;23.10;99.90
11944;DHT22;6031;50.220;10.122;2023-05-29T06:43:38;23.40;99.90
11944;DHT22;6031;50.220;10.122;2023-05-29T06:46:03;23.00;99.90
11944;DHT22;6031;50.220;10.122;2023-05-29T06:48:33;23.60;99.90
11944;DHT22;6031;50.220;10.122;2023-05-29T06:50:58;23.40;99.90
11944;DHT22;6031;50.220;10.122;2023-05-29T06:53:24;23.60;99.90
11944;DHT22;6031;50.220;10.122;2023-05-29T06:55:50;23.20;99.90
11944;DHT22;6031;50.220;10.122;2023-05-29T06:58:15;24.10;99.90
11944;DHT22;6031;50.220;10.122;2023-05-29T07:00:41;24.40;99.90
11944;DHT22;6031;50.220;10.122;2023-05-29T07:03:06;24.00;99.90
11944;DHT22;6031;50.220;10.122;2023-05-29T07:05:33;24.00;99.90
11944;DHT22;6031;50.220;10.122;2023-05-29T07:07:58;24.30;99.90
11944;DHT22;6031;50.220;10.122;2023-05-29T07:10:24;25.10;99.90
11944;DHT22;6031;50.220;10.122;2023-05-29T07:12:49;25.20;99.90
11944;DHT22;6031;50.220;10.122;2023-05-29T07:15:15;24.80;99.90
11944;DHT22;6031;50.220;10.122;2023-05-29T07:17:40;24.90;99.90
11944;DHT22;6031;50.220;10.122;2023-05-29T07:20:06;24.30;99.90
11944;DHT22;6031;50.220;10.122;2023-05-29T07:22:33;24.00;99.90
11944;DHT22;6031;50.220;10.122;2023-05-29T07:25:00;24.60;99.90
11944;DHT22;6031;50.220;10.122;2023-05-29T07:27:25;25.40;99.90
11944;DHT22;6031;50.220;10.122;2023-05-29T07:29:51;25.70;99.90
11944;DHT22;6031;50.220;10.122;2023-05-29T07:32:16;25.70;99.90
11944;DHT22;6031;50.220;10.122;2023-05-29T07:34:42;25.50;99.90
11944;DHT22;6031;50.220;10.122;2023-05-29T07:37:07;25.70;99.90
11944;DHT22;6031;50.220;10.122;2023-05-29T07:39:34;25.50;99.90
11944;DHT22;6031;50.220;10.122;2023-05-29T07:42:01;25.30;99.90
11944;DHT22;6031;50.220;10.122;2023-05-29T07:44:26;25.40;99.90
11944;DHT22;6031;50.220;10.122;2023-05-29T07:46:52;25.90;99.90
11944;DHT22;6031;50.220;10.122;2023-05-29T07:49:19;26.20;99.90
11944;DHT22;6031;50.220;10.122;2023-05-29T07:51:45;26.40;99.90
11944;DHT22;6031;50.220;10.122;2023-05-29T07:54:11;26.00;99.90
11944;DHT22;6031;50.220;10.122;2023-05-29T07:56:36;26.50;99.90
11944;DHT22;6031;50.220;10.122;2023-05-29T07:59:02;27.10;99.90
11944;DHT22;6031;50.220;10.122;2023-05-29T08:01:28;26.80;99.90
11944;DHT22;6031;50.220;10.122;2023-05-29T08:03:54;27.20;99.90
11944;DHT22;6031;50.220;10.122;2023-05-29T08:06:20;27.60;99.90
11944;DHT22;6031;50.220;10.122;2023-05-29T08:08:46;27.10;99.90
11944;DHT22;6031;50.220;10.122;2023-05-29T08:11:12;27.80;99.90
11944;DHT22;6031;50.220;10.122;2023-05-29T08:13:37;28.30;99.90
11944;DHT22;6031;50.220;10.122;2023-05-29T08:16:03;28.90;99.90
11944;DHT22;6031;50.220;10.122;2023-05-29T08:18:31;29.30;99.90
11944;DHT22;6031;50.220;10.122;2023-05-29T08:20:58;30.00;99.90
11944;DHT22;6031;50.220;10.122;2023-05-29T08:23:23;30.30;99.90
11944;DHT22;6031;50.220;10.122;2023-05-29T08:25:49;30.10;99.90
11944;DHT22;6031;50.220;10.122;2023-05-29T08:28:15;29.70;99.90
11944;DHT22;6031;50.220;10.122;2023-05-29T08:30:40;29.40;99.90
11944;DHT22;6031;50.220;10.122;2023-05-29T08:33:06;29.70;99.90
11944;DHT22;6031;50.220;10.122;2023-05-29T08:35:32;30.40;99.90
11944;DHT22;6031;50.220;10.122;2023-05-29T08:37:58;30.10;99.90
11944;DHT22;6031;50.220;10.122;2023-05-29T08:40:24;30.40;99.90
11944;DHT22;6031;50.220;10.122;2023-05-29T08:45:33;31.50;99.90
11944;DHT22;6031;50.220;10.122;2023-05-29T08:48:00;31.30;99.90
11944;DHT22;6031;50.220;10.122;2023-05-29T08:50:26;31.40;99.90
11944;DHT22;6031;50.220;10.122;2023-05-29T08:52:52;30.90;99.90
11944;DHT22;6031;50.220;10.122;2023-05-29T08:55:18;31.40;99.90
11944;DHT22;6031;50.220;10.122;2023-05-29T08:57:43;30.60;99.90
11944;DHT22;6031;50.220;10.122;2023-05-29T09:00:11;31.60;99.90
11944;DHT22;6031;50.220;10.122;2023-05-29T09:02:41;32.40;99.90
11944;DHT22;6031;50.220;10.122;2023-05-29T09:05:07;33.00;99.90
11944;DHT22;6031;50.220;10.122;2023-05-29T09:07:33;31.40;99.90
11944;DHT22;6031;50.220;10.122;2023-05-29T09:09:59;31.60;99.90
11944;DHT22;6031;50.220;10.122;2023-05-29T09:12:26;31.50;99.90
11944;DHT22;6031;50.220;10.122;2023-05-29T09:14:51;32.60;99.90
11944;DHT22;6031;50.220;10.122;2023-05-29T09:17:17;31.90;99.90
11944;DHT22;6031;50.220;10.122;2023-05-29T09:19:43;31.60;99.90
11944;DHT22;6031;50.220;10.122;2023-05-29T09:22:12;32.50;99.90
11944;DHT22;6031;50.220;10.122;2023-05-29T09:24:41;33.10;99.90
11944;DHT22;6031;50.220;10.122;2023-05-29T09:27:09;33.30;99.90
11944;DHT22;6031;50.220;10.122;2023-05-29T09:29:41;32.20;99.90
11944;DHT22;6031;50.220;10.122;2023-05-29T09:32:08;31.10;99.90
11944;DHT22;6031;50.220;10.122;2023-05-29T09:34:34;31.10;99.90
11944;DHT22;6031;50.220;10.122;2023-05-29T09:37:04;31.60;99.90
11944;DHT22;6031;50.220;10.122;2023-05-29T09:39:55;31.60;99.90
11944;DHT22;6031;50.220;10.122;2023-05-29T09:42:20;32.10;99.90
11944;DHT22;6031;50.220;10.122;2023-05-29T09:44:49;33.20;99.90
11944;DHT22;6031;50.220;10.122;2023-05-29T09:47:17;32.70;99.90
11944;DHT22;6031;50.220;10.122;2023-05-29T09:49:44;32.80;99.90
11944;DHT22;6031;50.220;10.122;2023-05-29T09:52:14;32.90;99.90
11944;DHT22;6031;50.220;10.122;2023-05-29T09:54:44;33.70;99.90
11944;DHT22;6031;50.220;10.122;2023-05-29T09:57:17;32.30;99.90
11944;DHT22;6031;50.220;10.122;2023-05-29T09:59:46;30.50;99.90
11944;DHT22;6031;50.220;10.122;2023-05-29T10:02:16;30.90;99.90
11944;DHT22;6031;50.220;10.122;2023-05-29T10:04:42;30.80;99.90
11944;DHT22;6031;50.220;10.122;2023-05-29T10:07:27;31.20;99.90
11944;DHT22;6031;50.220;10.122;2023-05-29T10:10:02;31.10;99.90
11944;DHT22;6031;50.220;10.122;2023-05-29T10:12:29;31.20;99.90
11944;DHT22;6031;50.220;10.122;2023-05-29T10:14:57;32.70;99.90
11944;DHT22;6031;50.220;10.122;2023-05-29T10:17:32;33.30;99.90
11944;DHT22;6031;50.220;10.122;2023-05-29T10:20:01;33.50;99.90
11944;DHT22;6031;50.220;10.122;2023-05-29T10:22:28;34.20;99.90
11944;DHT22;6031;50.220;10.122;2023-05-29T10:24:56;33.70;99.90
11944;DHT22;6031;50.220;10.122;2023-05-29T10:27:22;34.20;99.90
11944;DHT22;6031;50.220;10.122;2023-05-29T10:29:49;34.10;99.90
11944;DHT22;6031;50.220;10.122;2023-05-29T10:32:23;33.30;99.90
11944;DHT22;6031;50.220;10.122;2023-05-29T10:38:15;32.90;99.90
11944;DHT22;6031;50.220;10.122;2023-05-29T10:40:43;34.40;99.90
11944;DHT22;6031;50.220;10.122;2023-05-29T10:43:30;34.10;99.90
11944;DHT22;6031;50.220;10.122;2023-05-29T10:46:00;34.00;99.90
11944;DHT22;6031;50.220;10.122;2023-05-29T10:50:55;33.40;99.90
11944;DHT22;6031;50.220;10.122;2023-05-29T10:53:26;33.20;99.90
11944;DHT22;6031;50.220;10.122;2023-05-29T10:55:52;32.70;99.90
11944;DHT22;6031;50.220;10.122;2023-05-29T10:58:20;33.50;99.90
11944;DHT22;6031;50.220;10.122;2023-05-29T11:00:47;33.00;99.90
11944;DHT22;6031;50.220;10.122;2023-05-29T11:03:25;33.80;99.90
11944;DHT22;6031;50.220;10.122;2023-05-29T11:06:04;33.90;99.90
11944;DHT22;6031;50.220;10.122;2023-05-29T11:08:47;33.90;99.90
11944;DHT22;6031;50.220;10.122;2023-05-29T11:11:15;33.30;99.90
11944;DHT22;6031;50.220;10.122;2023-05-29T11:13:40;33.60;99.90
11944;DHT22;6031;50.220;10.122;2023-05-29T11:16:19;33.50;99.90
11944;DHT22;6031;50.220;10.122;2023-05-29T11:18:46;32.90;99.90
11944;DHT22;6031;50.220;10.122;2023-05-29T11:22:05;33.10;99.90
11944;DHT22;6031;50.220;10.122;2023-05-29T11:24:22;33.40;99.90
11944;DHT22;6031;50.220;10.122;2023-05-29T11:26:54;34.60;99.90
11944;DHT22;6031;50.220;10.122;2023-05-29T11:29:24;34.50;99.90
11944;DHT22;6031;50.220;10.122;2023-05-29T11:31:57;34.40;99.90
11944;DHT22;6031;50.220;10.122;2023-05-29T11:34:24;32.10;99.90
11944;DHT22;6031;50.220;10.122;2023-05-29T11:36:52;31.90;99.90
11944;DHT22;6031;50.220;10.122;2023-05-29T11:39:18;32.10;99.90
11944;DHT22;6031;50.220;10.122;2023-05-29T11:41:44;33.30;99.90
11944;DHT22;6031;50.220;10.122;2023-05-29T11:44:13;33.60;99.90
11944;DHT22;6031;50.220;10.122;2023-05-29T11:46:39;33.10;99.90
11944;DHT22;6031;50.220;10.122;2023-05-29T11:49:05;33.00;99.90
11944;DHT22;6031;50.220;10.122;2023-05-29T11:51:31;31.80;99.90
11944;DHT22;6031;50.220;10.122;2023-05-29T11:53:56;32.50;99.90
11944;DHT22;6031;50.220;10.122;2023-05-29T11:56:26;32.10;99.90
11944;DHT22;6031;50.220;10.122;2023-05-29T11:58:52;32.10;99.90
11944;DHT22;6031;50.220;10.122;2023-05-29T12:01:24;32.60;99.90
11944;DHT22;6031;50.220;10.122;2023-05-29T12:03:50;32.90;99.90
11944;DHT22;6031;50.220;10.122;2023-05-29T12:06:16;33.40;99.90
11944;DHT22;6031;50.220;10.122;2023-05-29T12:08:41;33.70;99.90
11944;DHT22;6031;50.220;10.122;2023-05-29T12:11:08;33.80;99.90
11944;DHT22;6031;50.220;10.122;2023-05-29T12:13:33;33.30;99.90
11944;DHT22;6031;50.220;10.122;2023-05-29T12:16:01;32.60;99.90
11944;DHT22;6031;50.220;10.122;2023-05-29T12:18:29;32.70;99.90
11944;DHT22;6031;50.220;10.122;2023-05-29T12:21:01;32.00;99.90
11944;DHT22;6031;50.220;10.122;2023-05-29T12:23:28;31.50;99.90
11944;DHT22;6031;50.220;10.122;2023-05-29T12:25:54;31.20;99.90
11944;DHT22;6031;50.220;10.122;2023-05-29T12:28:20;31.60;99.90
11944;DHT22;6031;50.220;10.122;2023-05-29T12:30:46;32.00;99.90
11944;DHT22;6031;50.220;10.122;2023-05-29T12:33:31;31.20;99.90
11944;DHT22;6031;50.220;10.122;2023-05-29T12:36:08;31.20;99.90
11944;DHT22;6031;50.220;10.122;2023-05-29T12:38:48;30.40;99.90
11944;DHT22;6031;50.220;10.122;2023-05-29T12:41:37;30.70;99.90
11944;DHT22;6031;50.220;10.122;2023-05-29T12:44:04;30.80;99.90
11944;DHT22;6031;50.220;10.122;2023-05-29T12:46:40;31.10;99.90
11944;DHT22;6031;50.220;10.122;2023-05-29T12:49:15;31.30;99.90
11944;DHT22;6031;50.220;10.122;2023-05-29T12:51:41;31.60;99.90
11944;DHT22;6031;50.220;10.122;2023-05-29T12:54:09;31.50;99.90
11944;DHT22;6031;50.220;10.122;2023-05-29T12:56:35;30.80;99.90
11944;DHT22;6031;50.220;10.122;2023-05-29T12:59:00;30.00;99.90
11944;DHT22;6031;50.220;10.122;2023-05-29T13:01:26;29.30;99.90
11944;DHT22;6031;50.220;10.122;2023-05-29T13:03:51;29.80;99.90
11944;DHT22;6031;50.220;10.122;2023-05-29T13:06:17;29.40;99.90
11944;DHT22;6031;50.220;10.122;2023-05-29T13:08:43;29.40;99.90
11944;DHT22;6031;50.220;10.122;2023-05-29T13:11:09;29.70;99.90
11944;DHT22;6031;50.220;10.122;2023-05-29T13:13:34;29.50;99.90
11944;DHT22;6031;50.220;10.122;2023-05-29T13:16:00;30.00;99.90
11944;DHT22;6031;50.220;10.122;2023-05-29T13:18:25;29.90;99.90
11944;DHT22;6031;50.220;10.122;2023-05-29T13:20:51;30.60;99.90
11944;DHT22;6031;50.220;10.122;2023-05-29T13:23:16;31.00;99.90
11944;DHT22;6031;50.220;10.122;2023-05-29T13:25:42;30.90;99.90
11944;DHT22;6031;50.220;10.122;2023-05-29T13:28:08;30.80;99.90
11944;DHT22;6031;50.220;10.122;2023-05-29T13:30:33;30.80;99.90
11944;DHT22;6031;50.220;10.122;2023-05-29T13:32:59;30.20;99.90
11944;DHT22;6031;50.220;10.122;2023-05-29T13:35:24;29.80;99.90
11944;DHT22;6031;50.220;10.122;2023-05-29T13:37:50;29.90;99.90
11944;DHT22;6031;50.220;10.122;2023-05-29T13:40:15;29.20;99.90
11944;DHT22;6031;50.220;10.122;2023-05-29T13:42:41;29.70;99.90
11944;DHT22;6031;50.220;10.122;2023-05-29T13:45:07;29.90;99.90
11944;DHT22;6031;50.220;10.122;2023-05-29T13:47:34;29.90;99.90
11944;DHT22;6031;50.220;10.122;2023-05-29T13:50:00;30.10;99.90
11944;DHT22;6031;50.220;10.122;2023-05-29T13:52:28;29.70;99.90
11944;DHT22;6031;50.220;10.122;2023-05-29T13:54:54;29.30;99.90
11944;DHT22;6031;50.220;10.122;2023-05-29T13:57:19;29.40;99.90
11944;DHT22;6031;50.220;10.122;2023-05-29T13:59:45;29.60;99.90
11944;DHT22;6031;50.220;10.122;2023-05-29T14:02:11;30.10;99.90
11944;DHT22;6031;50.220;10.122;2023-05-29T14:04:37;30.40;99.90
11944;DHT22;6031;50.220;10.122;2023-05-29T14:07:04;30.50;99.90
11944;DHT22;6031;50.220;10.122;2023-05-29T14:09:29;30.80;99.90
11944;DHT22;6031;50.220;10.122;2023-05-29T14:11:55;30.70;99.90
11944;DHT22;6031;50.220;10.122;2023-05-29T14:14:22;30.40;99.90
11944;DHT22;6031;50.220;10.122;2023-05-29T14:16:48;30.10;99.90
11944;DHT22;6031;50.220;10.122;2023-05-29T14:19:14;30.30;99.90
11944;DHT22;6031;50.220;10.122;2023-05-29T14:21:40;30.50;99.90
11944;DHT22;6031;50.220;10.122;2023-05-29T14:24:05;30.30;99.90
11944;DHT22;6031;50.220;10.122;2023-05-29T14:26:32;29.90;99.90
11944;DHT22;6031;50.220;10.122;2023-05-29T14:28:58;30.00;99.90
11944;DHT22;6031;50.220;10.122;2023-05-29T14:31:23;29.80;99.90
11944;DHT22;6031;50.220;10.122;2023-05-29T14:33:49;29.60;99.90
11944;DHT22;6031;50.220;10.122;2023-05-29T14:36:14;29.50;99.90
11944;DHT22;6031;50.220;10.122;2023-05-29T14:38:40;29.80;99.90
11944;DHT22;6031;50.220;10.122;2023-05-29T14:41:06;30.30;99.90
11944;DHT22;6031;50.220;10.122;2023-05-29T14:43:32;30.50;99.90
11944;DHT22;6031;50.220;10.122;2023-05-29T14:45:57;29.90;99.90
11944;DHT22;6031;50.220;10.122;2023-05-29T14:48:23;30.10;99.90
11944;DHT22;6031;50.220;10.122;2023-05-29T14:50:48;30.10;99.90
11944;DHT22;6031;50.220;10.122;2023-05-29T14:53:14;29.70;99.90
11944;DHT22;6031;50.220;10.122;2023-05-29T14:55:39;29.70;99.90
11944;DHT22;6031;50.220;10.122;2023-05-29T14:58:05;29.50;99.90
11944;DHT22;6031;50.220;10.122;2023-05-29T15:00:31;29.80;99.90
11944;DHT22;6031;50.220;10.122;2023-05-29T15:02:57;29.50;99.90
11944;DHT22;6031;50.220;10.122;2023-05-29T15:05:25;29.10;99.90
11944;DHT22;6031;50.220;10.122;2023-05-29T15:07:51;29.00;99.90
11944;DHT22;6031;50.220;10.122;2023-05-29T15:10:17;29.10;99.90
11944;DHT22;6031;50.220;10.122;2023-05-29T15:12:45;29.20;99.90
11944;DHT22;6031;50.220;10.122;2023-05-29T15:15:11;28.90;99.90
11944;DHT22;6031;50.220;10.122;2023-05-29T15:17:36;28.50;99.90
11944;DHT22;6031;50.220;10.122;2023-05-29T15:20:04;28.50;99.90
11944;DHT22;6031;50.220;10.122;2023-05-29T15:22:29;28.70;99.90
11944;DHT22;6031;50.220;10.122;2023-05-29T15:24:55;28.80;99.90
11944;DHT22;6031;50.220;10.122;2023-05-29T15:27:21;28.80;99.90
11944;DHT22;6031;50.220;10.122;2023-05-29T15:29:46;28.70;99.90
11944;DHT22;6031;50.220;10.122;2023-05-29T15:32:12;28.80;99.90
11944;DHT22;6031;50.220;10.122;2023-05-29T15:34:37;28.40;99.90
11944;DHT22;6031;50.220;10.122;2023-05-29T15:37:05;27.90;99.90
11944;DHT22;6031;50.220;10.122;2023-05-29T15:39:31;27.80;99.90
11944;DHT22;6031;50.220;10.122;2023-05-29T15:41:57;27.70;99.90
11944;DHT22;6031;50.220;10.122;2023-05-29T15:44:22;27.60;99.90
11944;DHT22;6031;50.220;10.122;2023-05-29T15:46:48;27.70;99.90
11944;DHT22;6031;50.220;10.122;2023-05-29T15:49:13;26.70;99.90
11944;DHT22;6031;50.220;10.122;2023-05-29T15:51:39;26.30;99.90